Sunday, December 17, 2017, 10:14 PM EST
Back to Local

KPNE, N.e. Philadelphia Airport

Location: Philadelphia, PA, United States Lat: 40.083
Local Time: 10:14 PM EST ( 3:14 GMT) Lon: -75.017
Time Zone: US/Eastern Elev: 121 ft

Show me the last for .
Show Decoded

2017-12-17 21:54 METAR KPNE 180254Z 04006KT 8SM OVC100 03/M01 A3023 RMK AO2 SLP236 T00281011
                 56010 =
2017-12-17 20:54 METAR KPNE 180154Z 06005KT 8SM BKN110 02/M01 A3024 RMK AO2 SLP240 T00221011 =
2017-12-17 19:54 METAR KPNE 180054Z 05006KT 8SM CLR 02/M02 A3024 RMK AO2 SLP240 T00221022 =
2017-12-17 18:54 METAR KPNE 172354Z 04005KT 9SM BKN110 04/M02 A3026 RMK AO2 SLP247 T00391017
                 10072 20039 53007 =
2017-12-17 17:54 METAR KPNE 172254Z 06004KT 9SM CLR 04/M02 A3025 RMK AO2 SLP242 T00391017 =
2017-12-17 16:54 METAR KPNE 172154Z 05003KT 9SM CLR 04/M02 A3024 RMK AO2 SLP240 T00441017 =
2017-12-17 15:54 METAR KPNE 172054Z 07003KT 8SM CLR 06/M01 A3024 RMK AO2 SLP240 T00561011 55004 =
2017-12-17 14:54 METAR KPNE 171954Z 04003KT 8SM CLR 06/M02 A3023 RMK AO2 SLP237 T00611017 =
2017-12-17 13:54 METAR KPNE 171854Z 00000KT 9SM CLR 06/M02 A3023 RMK AO2 SLP238 T00611017 =
2017-12-17 12:54 METAR KPNE 171754Z 00000KT 9SM CLR 06/M01 A3025 RMK AO2 SLP244 T00611011 10067
                 21006 58017 =
2017-12-17 11:54 METAR KPNE 171654Z 05003KT 10SM CLR 06/M02 A3028 RMK AO2 SLP253 T00611022 =
2017-12-17 10:54 METAR KPNE 171554Z 10004KT 10SM CLR 05/M02 A3030 RMK AO2 SLP262 T00501022 =
2017-12-17 09:54 METAR KPNE 171454Z 06005KT 10SM CLR 03/M03 A3030 RMK AO2 SLP261 T00281033 51007
                 =
2017-12-17 08:54 METAR KPNE 171354Z 04003KT 9SM CLR 01/M03 A3030 RMK AO2 SLP260 T00111033 =
2017-12-17 07:54 METAR KPNE 171254Z AUTO 03003KT 10SM CLR 00/M04 A3029 RMK AO2 SLP258 T00001044 =
2017-12-17 06:54 METAR KPNE 171154Z AUTO 06004KT 10SM CLR M01/M04 A3028 RMK AO2 SLP253 T10061044
                 10022 21011 53006 =
2017-12-17 05:54 METAR KPNE 171054Z AUTO 04003KT 9SM CLR 00/M04 A3026 RMK AO2 SLP248 T00001039 =
2017-12-17 04:54 METAR KPNE 170954Z AUTO 07004KT 9SM CLR 01/M04 A3025 RMK AO2 SLP244 T00061039 =
2017-12-17 03:54 METAR KPNE 170854Z AUTO 05004KT 10SM BKN060 01/M03 A3026 RMK AO2 SLP247
                 T00111033 51015 =
2017-12-17 02:54 METAR KPNE 170754Z AUTO 04005KT 9SM OVC060 02/M03 A3025 RMK AO2 SLP245 T00171028
                 =
2017-12-17 01:54 METAR KPNE 170654Z AUTO 06005KT 9SM OVC055 02/M03 A3024 RMK AO2 SLP241 T00221028
                 =
2017-12-17 00:54 METAR KPNE 170554Z AUTO 04005KT 10SM OVC055 02/M02 A3022 RMK AO2 SLP232
                 T00221022 10050 20022 50009 =
2017-12-16 23:54 METAR KPNE 170454Z AUTO 26004KT 10SM OVC055 03/M02 A3022 RMK AO2 SLP233
                 T00331022 400561061 =
2017-12-16 22:54 METAR KPNE 170354Z AUTO 22004KT 10SM OVC060 04/M03 A3019 RMK AO2 SLP225
                 T00441028 =

Support USWX by starting your Amazon purchase here.